createdAt,value
2022-10-29T00:00:21.630Z,5.55
2022-10-29T00:02:43.243Z,5.82
2022-10-29T00:05:05.095Z,5.43
2022-10-29T00:07:26.617Z,5.20
2022-10-29T00:09:48.097Z,5.50
2022-10-29T00:12:09.636Z,5.43
2022-10-29T00:14:31.120Z,5.60
2022-10-29T00:16:52.604Z,5.60
2022-10-29T00:19:14.092Z,5.93
2022-10-29T00:21:35.708Z,5.18
2022-10-29T00:23:58.121Z,5.70
2022-10-29T00:26:21.831Z,5.15
2022-10-29T00:28:43.790Z,5.60
2022-10-29T00:31:31.868Z,5.72
2022-10-29T00:33:54.971Z,5.38
2022-10-29T00:36:19.520Z,5.35
2022-10-29T00:38:41.817Z,6.10
2022-10-29T00:41:05.777Z,6.05
2022-10-29T00:43:27.874Z,5.70
2022-10-29T00:45:57.426Z,5.38
2022-10-29T00:48:20.602Z,5.60
2022-10-29T00:50:43.731Z,5.38
2022-10-29T00:53:05.217Z,4.70
2022-10-29T00:55:26.861Z,5.78
2022-10-29T00:57:54.762Z,5.38
2022-10-29T01:00:18.825Z,5.57
2022-10-29T01:02:42.153Z,5.32
2022-10-29T01:05:05.300Z,6.10
2022-10-29T01:07:26.900Z,5.38
2022-10-29T01:09:49.648Z,5.53
2022-10-29T01:12:21.219Z,5.90
2022-10-29T01:15:04.367Z,5.82
2022-10-29T01:18:06.206Z,5.28
2022-10-29T01:20:46.395Z,5.10
2022-10-29T01:23:29.640Z,5.50
2022-10-29T01:26:18.670Z,5.03
2022-10-29T01:29:12.456Z,5.17
2022-10-29T01:31:46.459Z,6.33
2022-10-29T01:34:20.905Z,5.53
2022-10-29T01:36:54.398Z,4.80
2022-10-29T01:39:27.542Z,5.03
2022-10-29T01:41:55.318Z,5.43
2022-10-29T01:44:40.019Z,5.67
2022-10-29T01:47:03.968Z,6.30
2022-10-29T01:49:34.860Z,5.23
2022-10-29T01:51:58.325Z,5.80
2022-10-29T01:54:19.817Z,5.53
2022-10-29T01:56:41.493Z,5.80
2022-10-29T01:59:11.383Z,4.93
2022-10-29T02:02:12.617Z,5.10
2022-10-29T02:04:43.765Z,5.80
2022-10-29T02:07:27.683Z,5.80
2022-10-29T02:09:56.165Z,5.80
2022-10-29T02:12:25.491Z,5.57
2022-10-29T02:14:55.820Z,6.03
2022-10-29T02:17:17.835Z,5.90
2022-10-29T02:19:39.333Z,5.60
2022-10-29T02:22:00.815Z,5.30
2022-10-29T02:24:22.285Z,5.60
2022-10-29T02:26:43.769Z,5.37
2022-10-29T02:29:05.275Z,5.03
2022-10-29T02:31:26.712Z,5.87
2022-10-29T02:33:48.198Z,5.77
2022-10-29T02:36:09.871Z,5.73
2022-10-29T02:38:31.382Z,5.93
2022-10-29T02:40:52.858Z,5.47
2022-10-29T02:43:14.440Z,5.70
2022-10-29T02:45:35.950Z,5.70
2022-10-29T02:47:57.890Z,5.83
2022-10-29T02:50:19.565Z,6.63
2022-10-29T02:52:41.062Z,6.23
2022-10-29T02:55:02.856Z,5.73
2022-10-29T02:57:24.382Z,5.80
2022-10-29T02:59:45.882Z,6.60
2022-10-29T03:02:07.521Z,5.87
2022-10-29T03:04:29.263Z,5.23
2022-10-29T03:06:50.820Z,4.90
2022-10-29T03:09:12.316Z,5.37
2022-10-29T03:11:34.151Z,5.40
2022-10-29T03:13:55.776Z,5.80
2022-10-29T03:16:17.264Z,6.20
2022-10-29T03:18:38.794Z,6.57
2022-10-29T03:21:00.273Z,6.80
2022-10-29T03:23:22.304Z,6.70
2022-10-29T03:25:43.802Z,6.27
2022-10-29T03:28:05.511Z,6.60
2022-10-29T03:30:27.123Z,6.20
2022-10-29T03:32:48.780Z,6.93
2022-10-29T03:35:12.041Z,6.10
2022-10-29T03:37:33.517Z,6.73
2022-10-29T03:39:55.175Z,5.50
2022-10-29T03:42:16.688Z,5.90
2022-10-29T03:44:38.148Z,5.77
2022-10-29T03:46:59.625Z,5.60
2022-10-29T03:49:21.087Z,5.17
2022-10-29T03:51:42.560Z,5.27
2022-10-29T03:54:04.168Z,4.83
2022-10-29T03:56:25.669Z,5.20
2022-10-29T03:58:47.172Z,5.40
2022-10-29T04:01:10.306Z,5.10
2022-10-29T04:03:33.943Z,5.30
2022-10-29T04:05:55.987Z,6.27
2022-10-29T04:08:17.587Z,5.37
2022-10-29T04:10:44.037Z,5.63
2022-10-29T04:13:05.510Z,5.53
2022-10-29T04:15:26.971Z,6.40
2022-10-29T04:17:50.869Z,6.00
2022-10-29T04:20:27.296Z,5.30
2022-10-29T04:24:12.031Z,5.83
2022-10-29T04:28:46.399Z,5.67
2022-10-29T04:30:58.180Z,6.20
2022-10-29T04:33:19.758Z,5.87
2022-10-29T04:35:41.436Z,5.70
2022-10-29T04:38:10.356Z,6.17
2022-10-29T04:40:31.832Z,6.40
2022-10-29T04:42:53.529Z,6.33
2022-10-29T04:45:15.276Z,6.07
2022-10-29T04:47:36.834Z,6.67
2022-10-29T04:49:58.298Z,6.33
2022-10-29T04:52:19.765Z,6.50
2022-10-29T04:54:41.262Z,6.20
2022-10-29T04:57:02.752Z,6.03
2022-10-29T04:59:24.218Z,5.50
2022-10-29T05:01:45.734Z,5.60
2022-10-29T05:04:07.291Z,5.93
2022-10-29T05:06:28.784Z,6.67
2022-10-29T05:08:50.257Z,6.00
2022-10-29T05:11:11.835Z,11.67
2022-10-29T05:13:34.347Z,11.73
2022-10-29T05:15:55.818Z,12.93
2022-10-29T05:18:17.361Z,17.87
2022-10-29T05:20:38.827Z,13.77
2022-10-29T05:23:08.160Z,8.00
2022-10-29T05:25:30.717Z,7.67
2022-10-29T05:28:03.287Z,6.50
2022-10-29T05:30:24.747Z,8.27
2022-10-29T05:32:46.206Z,8.33
2022-10-29T05:35:07.787Z,8.87
2022-10-29T05:37:29.270Z,7.23
2022-10-29T05:39:50.966Z,6.87
2022-10-29T05:42:12.446Z,9.17
2022-10-29T05:44:33.912Z,7.93
2022-10-29T05:46:55.433Z,9.30
2022-10-29T05:49:16.895Z,11.67
2022-10-29T05:51:38.393Z,13.77
2022-10-29T05:53:59.855Z,12.87
2022-10-29T05:56:21.380Z,12.53
2022-10-29T05:58:42.870Z,9.93
2022-10-29T06:01:08.928Z,7.60
2022-10-29T06:03:30.445Z,8.20
2022-10-29T06:05:51.978Z,7.93
2022-10-29T06:08:13.610Z,30.17
2022-10-29T06:10:35.445Z,31.53
2022-10-29T06:12:56.955Z,27.93
2022-10-29T06:15:18.800Z,17.47
2022-10-29T06:17:41.825Z,11.10
2022-10-29T06:20:03.434Z,9.63
2022-10-29T06:22:24.910Z,15.13
2022-10-29T06:24:46.437Z,15.43
2022-10-29T06:27:07.925Z,7.77
2022-10-29T06:29:29.380Z,10.07
2022-10-29T06:31:50.855Z,8.83
2022-10-29T06:34:13.538Z,7.93
2022-10-29T06:36:35.140Z,7.30
2022-10-29T06:38:56.602Z,8.23
2022-10-29T06:41:18.168Z,7.73
2022-10-29T06:43:39.659Z,7.17
2022-10-29T06:46:01.275Z,7.37
2022-10-29T06:48:23.072Z,7.20
2022-10-29T06:50:44.615Z,6.80
2022-10-29T06:53:07.689Z,6.50
2022-10-29T06:55:30.140Z,6.93
2022-10-29T06:58:04.581Z,7.77
2022-10-29T07:00:26.859Z,7.50
2022-10-29T07:02:48.453Z,8.30
2022-10-29T07:05:09.905Z,7.03
2022-10-29T07:07:31.496Z,7.77
2022-10-29T07:09:53.033Z,10.20
2022-10-29T07:12:14.565Z,10.13
2022-10-29T07:14:36.085Z,7.97
2022-10-29T07:16:57.590Z,7.73
2022-10-29T07:19:19.148Z,8.07
2022-10-29T07:21:40.651Z,7.00
2022-10-29T07:24:02.213Z,6.40
2022-10-29T07:26:23.703Z,7.73
2022-10-29T07:28:45.266Z,6.57
2022-10-29T07:31:07.815Z,6.77
2022-10-29T07:33:30.976Z,7.23
2022-10-29T07:35:56.886Z,6.87
2022-10-29T07:38:18.353Z,6.07
2022-10-29T07:40:47.538Z,6.70
2022-10-29T07:43:09.375Z,6.25
2022-10-29T07:45:30.945Z,6.82
2022-10-29T07:48:02.881Z,6.50
2022-10-29T07:50:24.858Z,6.70
2022-10-29T07:52:48.168Z,7.15
2022-10-29T07:55:09.767Z,6.68
2022-10-29T07:57:31.269Z,7.15
2022-10-29T07:59:52.763Z,7.25
2022-10-29T08:02:14.282Z,7.03
2022-10-29T08:04:35.882Z,6.93
2022-10-29T08:06:57.334Z,6.65
2022-10-29T08:09:18.945Z,7.47
2022-10-29T08:11:40.508Z,8.20
2022-10-29T08:14:02.061Z,8.50
2022-10-29T08:16:23.584Z,7.93
2022-10-29T08:18:45.114Z,7.93
2022-10-29T08:21:07.043Z,6.22
2022-10-29T08:23:28.539Z,7.07
2022-10-29T08:25:50.026Z,7.10
2022-10-29T08:28:16.261Z,6.75
2022-10-29T08:30:37.861Z,6.07
2022-10-29T08:33:00.026Z,6.90
2022-10-29T08:35:21.992Z,6.43
2022-10-29T08:37:44.849Z,9.45
2022-10-29T08:40:07.015Z,9.13
2022-10-29T08:42:44.591Z,9.35
2022-10-29T08:45:27.757Z,16.25
2022-10-29T08:48:26.856Z,14.85
2022-10-29T08:50:54.911Z,15.23
2022-10-29T08:53:25.809Z,11.63
2022-10-29T08:55:49.254Z,7.43
2022-10-29T08:58:43.736Z,7.05
2022-10-29T09:01:10.909Z,7.00
2022-10-29T09:03:32.517Z,5.78
2022-10-29T09:06:33.137Z,5.75
2022-10-29T09:09:19.434Z,5.88
2022-10-29T09:12:11.559Z,5.80
2022-10-29T09:15:05.262Z,6.05
2022-10-29T09:17:36.374Z,5.35
2022-10-29T09:20:07.825Z,5.53
2022-10-29T09:22:48.221Z,5.07
2022-10-29T09:25:23.717Z,5.22
2022-10-29T09:27:57.303Z,5.22
2022-10-29T09:30:20.770Z,5.07
2022-10-29T09:32:45.037Z,5.35
2022-10-29T09:35:16.109Z,4.90
2022-10-29T09:37:43.916Z,5.45
2022-10-29T09:40:13.153Z,5.30
2022-10-29T09:42:38.274Z,5.32
2022-10-29T09:45:03.038Z,5.30
2022-10-29T09:47:43.297Z,5.10
2022-10-29T09:50:22.980Z,5.50
2022-10-29T09:52:47.900Z,5.40
2022-10-29T09:55:18.470Z,5.72
2022-10-29T09:57:40.839Z,5.25
2022-10-29T10:00:14.663Z,5.32
2022-10-29T10:02:43.073Z,5.60
2022-10-29T10:05:13.831Z,5.15
2022-10-29T10:07:35.382Z,5.43
2022-10-29T10:10:02.434Z,5.85
2022-10-29T10:12:29.348Z,5.70
2022-10-29T10:15:22.307Z,5.22
2022-10-29T10:17:58.044Z,5.47
2022-10-29T10:20:49.206Z,5.40
2022-10-29T10:23:32.512Z,5.80
2022-10-29T10:26:02.340Z,5.13
2022-10-29T10:28:34.663Z,5.57
2022-10-29T10:31:09.583Z,5.00
2022-10-29T10:33:32.833Z,4.90
2022-10-29T10:35:54.923Z,5.22
2022-10-29T10:38:16.705Z,5.32
2022-10-29T10:40:38.312Z,5.28
2022-10-29T10:43:00.706Z,4.95
2022-10-29T10:45:29.520Z,5.60
2022-10-29T10:47:57.522Z,5.35
2022-10-29T10:50:19.283Z,5.32
2022-10-29T10:52:41.195Z,5.88
2022-10-29T10:55:25.883Z,8.68
2022-10-29T10:57:55.047Z,5.90
2022-10-29T11:00:20.283Z,5.20
2022-10-29T11:03:10.908Z,4.80
2022-10-29T11:05:40.536Z,5.75
2022-10-29T11:08:31.361Z,5.47
2022-10-29T11:10:56.839Z,5.32
2022-10-29T11:13:22.840Z,5.15
2022-10-29T11:15:47.289Z,4.60
2022-10-29T11:18:19.818Z,4.93
2022-10-29T11:20:48.199Z,4.63
2022-10-29T11:23:43.517Z,4.97
2022-10-29T11:26:40.924Z,5.75
2022-10-29T11:29:14.329Z,4.90
2022-10-29T11:31:55.468Z,4.85
2022-10-29T11:34:16.930Z,5.80
2022-10-29T11:37:01.869Z,5.32
2022-10-29T11:39:33.268Z,5.05
2022-10-29T11:42:01.546Z,5.60
2022-10-29T11:44:23.231Z,5.20
2022-10-29T11:47:05.513Z,5.70
2022-10-29T11:49:39.180Z,4.90
2022-10-29T11:52:06.532Z,5.25
2022-10-29T11:54:42.455Z,5.35
2022-10-29T11:57:11.912Z,5.28
2022-10-29T12:00:09.162Z,5.15
2022-10-29T12:03:08.125Z,5.43
2022-10-29T12:05:59.150Z,5.43
2022-10-29T12:08:42.546Z,4.82
2022-10-29T12:11:31.176Z,5.55
2022-10-29T12:14:01.785Z,5.20
2022-10-29T12:16:29.199Z,4.50
2022-10-29T12:19:14.483Z,4.90
2022-10-29T12:21:53.940Z,5.30
2022-10-29T12:24:23.280Z,4.90
2022-10-29T12:26:52.115Z,5.60
2022-10-29T12:29:23.546Z,5.10
2022-10-29T12:31:47.672Z,6.22
2022-10-29T12:34:16.185Z,5.70
2022-10-29T12:37:03.930Z,5.22
2022-10-29T12:39:32.090Z,5.63
2022-10-29T12:42:12.560Z,6.03
2022-10-29T12:44:45.161Z,5.57
2022-10-29T12:47:16.160Z,5.40
2022-10-29T12:50:13.223Z,5.55
2022-10-29T12:52:48.812Z,5.43
2022-10-29T12:55:13.717Z,5.63
2022-10-29T12:57:36.190Z,5.25
2022-10-29T13:00:17.644Z,5.57
2022-10-29T13:02:39.368Z,5.80
2022-10-29T13:05:07.216Z,5.68
2022-10-29T13:07:28.754Z,5.43
2022-10-29T13:10:21.956Z,5.97
2022-10-29T13:12:55.402Z,5.53
2022-10-29T13:15:16.962Z,6.15
2022-10-29T13:17:40.227Z,5.07
2022-10-29T13:20:14.917Z,5.70
2022-10-29T13:22:53.110Z,5.78
2022-10-29T13:25:27.654Z,6.10
2022-10-29T13:27:49.155Z,5.97
2022-10-29T13:30:21.349Z,5.53
2022-10-29T13:32:42.886Z,5.07
2022-10-29T13:35:25.729Z,5.85
2022-10-29T13:37:49.249Z,6.03
2022-10-29T13:40:22.986Z,5.70
2022-10-29T13:42:45.429Z,5.63
2022-10-29T13:45:11.963Z,5.93
2022-10-29T13:47:33.543Z,6.10
2022-10-29T13:49:55.331Z,6.13
2022-10-29T13:52:18.782Z,5.93
2022-10-29T13:54:46.169Z,5.60
2022-10-29T13:57:13.410Z,6.05
2022-10-29T13:59:41.392Z,6.35
2022-10-29T14:02:22.450Z,5.90
2022-10-29T14:04:49.457Z,6.00
2022-10-29T14:07:49.188Z,6.18
2022-10-29T14:10:32.079Z,5.78
2022-10-29T14:13:05.867Z,5.90
2022-10-29T14:15:27.416Z,5.43
2022-10-29T14:17:48.876Z,5.35
2022-10-29T14:20:28.333Z,5.32
2022-10-29T14:22:49.832Z,5.50
2022-10-29T14:25:33.944Z,6.38
2022-10-29T14:28:33.677Z,5.75
2022-10-29T14:31:04.297Z,5.45
2022-10-29T14:33:29.164Z,5.88
2022-10-29T14:35:52.168Z,6.03
2022-10-29T14:38:14.619Z,5.68
2022-10-29T14:40:36.324Z,5.90
2022-10-29T14:42:58.107Z,5.53
2022-10-29T14:45:28.613Z,5.85
2022-10-29T14:47:58.481Z,6.20
2022-10-29T14:50:26.246Z,5.45
2022-10-29T14:52:53.715Z,5.78
2022-10-29T14:55:21.397Z,5.65
2022-10-29T14:57:48.544Z,5.65
2022-10-29T15:00:27.108Z,5.82
2022-10-29T15:02:49.408Z,5.50
2022-10-29T15:05:37.635Z,5.43
2022-10-29T15:08:11.360Z,5.47
2022-10-29T15:10:43.439Z,5.25
2022-10-29T15:13:19.592Z,5.97
2022-10-29T15:15:52.935Z,5.35
2022-10-29T15:18:19.638Z,5.88
2022-10-29T15:20:41.081Z,5.93
2022-10-29T15:23:03.510Z,5.88
2022-10-29T15:25:29.737Z,5.60
2022-10-29T15:27:52.169Z,5.53
2022-10-29T15:30:30.739Z,5.82
2022-10-29T15:32:59.485Z,6.20
2022-10-29T15:35:21.637Z,6.47
2022-10-29T15:37:45.828Z,6.93
2022-10-29T15:40:13.376Z,6.28
2022-10-29T15:42:36.668Z,6.03
2022-10-29T15:45:07.116Z,6.25
2022-10-29T15:47:29.005Z,8.18
2022-10-29T15:49:50.494Z,10.32
2022-10-29T15:52:17.714Z,12.27
2022-10-29T15:54:39.241Z,8.77
2022-10-29T15:57:00.795Z,7.55
2022-10-29T15:59:24.798Z,7.00
2022-10-29T16:01:46.330Z,7.00
2022-10-29T16:04:09.495Z,7.22
2022-10-29T16:06:31.402Z,7.53
2022-10-29T16:08:55.563Z,8.02
2022-10-29T16:11:20.793Z,6.63
2022-10-29T16:13:42.738Z,6.55
2022-10-29T16:16:04.568Z,6.07
2022-10-29T16:18:26.676Z,7.90
2022-10-29T16:20:48.644Z,9.23
2022-10-29T16:23:11.598Z,9.45
2022-10-29T16:25:33.083Z,8.30
2022-10-29T16:27:55.787Z,7.55
2022-10-29T16:30:18.136Z,7.47
2022-10-29T16:32:40.375Z,6.78
2022-10-29T16:35:01.837Z,7.53
2022-10-29T16:37:23.335Z,9.50
2022-10-29T16:39:44.922Z,12.98
2022-10-29T16:42:06.802Z,9.35
2022-10-29T16:44:28.282Z,9.98
2022-10-29T16:46:49.753Z,8.20
2022-10-29T16:49:11.248Z,8.63
2022-10-29T16:51:32.704Z,10.63
2022-10-29T16:53:54.205Z,11.10
2022-10-29T16:56:15.922Z,8.93
2022-10-29T16:58:37.412Z,8.07
2022-10-29T17:01:04.151Z,8.35
2022-10-29T17:03:25.734Z,9.57
2022-10-29T17:05:47.626Z,10.20
2022-10-29T17:08:09.502Z,7.95
2022-10-29T17:10:31.321Z,7.63
2022-10-29T17:12:52.846Z,7.82
2022-10-29T17:15:14.866Z,8.15
2022-10-29T17:17:36.417Z,7.80
2022-10-29T17:19:58.192Z,7.97
2022-10-29T17:22:19.876Z,7.65
2022-10-29T17:24:42.825Z,7.60
2022-10-29T17:27:04.384Z,7.18
2022-10-29T17:29:25.899Z,9.10
2022-10-29T17:31:47.497Z,11.15
2022-10-29T17:34:08.990Z,10.90
2022-10-29T17:36:30.539Z,9.10
2022-10-29T17:38:52.042Z,8.48
2022-10-29T17:41:13.856Z,7.63
2022-10-29T17:43:35.341Z,6.95
2022-10-29T17:45:56.838Z,7.72
2022-10-29T17:48:23.935Z,7.63
2022-10-29T17:50:57.697Z,7.53
2022-10-29T17:53:19.236Z,8.20
2022-10-29T17:55:40.697Z,7.47
2022-10-29T17:58:02.179Z,7.90
2022-10-29T18:00:23.839Z,8.98
2022-10-29T18:02:48.750Z,9.93
2022-10-29T18:05:10.428Z,9.82
2022-10-29T18:07:31.908Z,9.77
2022-10-29T18:09:53.397Z,9.35
2022-10-29T18:12:14.950Z,8.82
2022-10-29T18:14:36.439Z,7.30
2022-10-29T18:16:58.810Z,8.05
2022-10-29T18:19:20.316Z,8.55
2022-10-29T18:21:41.866Z,8.32
2022-10-29T18:24:03.483Z,8.75
2022-10-29T18:26:30.782Z,7.60
2022-10-29T18:28:54.544Z,8.98
2022-10-29T18:31:16.543Z,8.23
2022-10-29T18:33:38.032Z,8.30
2022-10-29T18:35:59.519Z,8.00
2022-10-29T18:38:21.061Z,7.43
2022-10-29T18:40:42.537Z,8.68
2022-10-29T18:43:04.088Z,7.10
2022-10-29T18:45:25.603Z,7.75
2022-10-29T18:47:47.076Z,6.95
2022-10-29T18:50:08.603Z,7.82
2022-10-29T18:52:30.077Z,8.43
2022-10-29T18:54:51.579Z,8.25
2022-10-29T18:57:16.760Z,8.13
2022-10-29T18:59:40.791Z,7.95
2022-10-29T19:02:02.401Z,7.47
2022-10-29T19:04:23.935Z,7.85
2022-10-29T19:06:45.461Z,7.53
2022-10-29T19:09:08.650Z,7.90
2022-10-29T19:11:30.659Z,8.40
2022-10-29T19:13:53.711Z,8.00
2022-10-29T19:16:15.185Z,8.25
2022-10-29T19:18:38.219Z,7.18
2022-10-29T19:21:07.871Z,7.43
2022-10-29T19:23:29.432Z,8.80
2022-10-29T19:25:50.883Z,8.77
2022-10-29T19:28:12.439Z,8.07
2022-10-29T19:30:33.915Z,8.23
2022-10-29T19:32:55.781Z,7.03
2022-10-29T19:35:17.638Z,7.10
2022-10-29T19:37:40.131Z,6.80
2022-10-29T19:40:01.719Z,7.03
2022-10-29T19:42:31.134Z,7.75
2022-10-29T19:44:55.498Z,7.78
2022-10-29T19:47:18.099Z,7.60
2022-10-29T19:49:39.554Z,7.65
2022-10-29T19:52:01.091Z,8.27
2022-10-29T19:54:22.684Z,7.53
2022-10-29T19:56:44.245Z,13.05
2022-10-29T19:59:06.176Z,13.07
2022-10-29T20:01:27.816Z,14.90
2022-10-29T20:03:49.375Z,11.00
2022-10-29T20:06:11.585Z,10.15
2022-10-29T20:08:33.116Z,9.98
2022-10-29T20:10:59.452Z,9.32
2022-10-29T20:13:20.948Z,8.57
2022-10-29T20:15:42.402Z,8.80
2022-10-29T20:18:04.163Z,9.52
2022-10-29T20:20:25.818Z,8.82
2022-10-29T20:22:47.327Z,9.35
2022-10-29T20:25:09.397Z,11.57
2022-10-29T20:27:30.974Z,10.53
2022-10-29T20:29:52.436Z,9.80
2022-10-29T20:32:13.932Z,10.20
2022-10-29T20:34:35.422Z,10.50
2022-10-29T20:36:57.013Z,10.40
2022-10-29T20:39:20.142Z,10.10
2022-10-29T20:41:42.157Z,9.97
2022-10-29T20:44:03.722Z,9.80
2022-10-29T20:46:25.294Z,9.83
2022-10-29T20:48:46.747Z,9.40
2022-10-29T20:51:08.212Z,10.83
2022-10-29T20:53:29.749Z,11.07
2022-10-29T20:55:51.783Z,10.00
2022-10-29T20:58:13.337Z,9.13
2022-10-29T21:00:34.791Z,9.20
2022-10-29T21:02:56.272Z,9.13
2022-10-29T21:05:17.718Z,9.60
2022-10-29T21:07:40.126Z,9.33
2022-10-29T21:10:01.631Z,9.47
2022-10-29T21:12:23.144Z,9.60
2022-10-29T21:14:44.607Z,9.50
2022-10-29T21:17:06.740Z,9.37
2022-10-29T21:19:28.758Z,8.50
2022-10-29T21:21:50.240Z,10.10
2022-10-29T21:24:11.712Z,8.47
2022-10-29T21:26:33.227Z,9.10
2022-10-29T21:28:55.281Z,9.37
2022-10-29T21:31:17.142Z,9.50
2022-10-29T21:33:38.834Z,9.40
2022-10-29T21:36:00.853Z,9.43
2022-10-29T21:38:23.734Z,10.63
2022-10-29T21:40:45.323Z,11.70
2022-10-29T21:43:06.803Z,11.60
2022-10-29T21:45:28.246Z,9.23
2022-10-29T21:47:49.806Z,11.07
2022-10-29T21:50:11.475Z,11.30
2022-10-29T21:52:33.017Z,10.17
2022-10-29T21:54:54.485Z,9.77
2022-10-29T21:57:15.925Z,10.17
2022-10-29T21:59:37.452Z,12.77
2022-10-29T22:01:59.583Z,9.13
2022-10-29T22:04:21.122Z,9.13
2022-10-29T22:06:42.592Z,9.05
2022-10-29T22:09:04.055Z,10.17
2022-10-29T22:11:27.219Z,9.73
2022-10-29T22:13:48.911Z,9.33
2022-10-29T22:16:11.478Z,10.10
2022-10-29T22:18:33.734Z,9.20
2022-10-29T22:21:05.452Z,9.80
2022-10-29T22:23:26.931Z,9.67
2022-10-29T22:25:51.251Z,10.00
2022-10-29T22:28:12.763Z,9.33
2022-10-29T22:30:34.262Z,9.67
2022-10-29T22:32:55.719Z,8.97
2022-10-29T22:35:17.198Z,9.93
2022-10-29T22:37:38.702Z,9.50
2022-10-29T22:40:00.175Z,8.93
2022-10-29T22:42:21.901Z,9.83
2022-10-29T22:44:43.373Z,9.40
2022-10-29T22:47:04.947Z,8.60
2022-10-29T22:49:26.399Z,9.20
2022-10-29T22:51:47.891Z,9.63
2022-10-29T22:54:09.357Z,9.37
2022-10-29T22:56:36.011Z,9.93
2022-10-29T22:58:57.875Z,9.87
2022-10-29T23:01:25.394Z,9.07
2022-10-29T23:03:47.481Z,10.10
2022-10-29T23:06:11.667Z,9.63
2022-10-29T23:08:33.759Z,8.87
2022-10-29T23:10:55.596Z,9.27
2022-10-29T23:13:17.084Z,10.07
2022-10-29T23:15:38.555Z,9.00
2022-10-29T23:18:00.411Z,9.47
2022-10-29T23:20:22.171Z,8.55
2022-10-29T23:22:43.625Z,9.23
2022-10-29T23:25:05.562Z,9.10
2022-10-29T23:27:27.033Z,8.90
2022-10-29T23:29:48.515Z,9.73
2022-10-29T23:32:09.989Z,9.13
2022-10-29T23:34:31.477Z,9.00
2022-10-29T23:36:53.511Z,9.68
2022-10-29T23:39:15.121Z,8.75
2022-10-29T23:41:36.649Z,9.13
2022-10-29T23:43:58.574Z,8.85
2022-10-29T23:46:20.362Z,8.50
2022-10-29T23:48:41.885Z,8.98
2022-10-29T23:51:03.496Z,8.98
2022-10-29T23:53:25.195Z,9.02
2022-10-29T23:55:46.728Z,8.93
2022-10-29T23:58:08.467Z,9.45
